FCDMC ALERT System Data Display

36807 Powerline FRS
Impoundment Stage A2

Impoundment Stage A2
Date       Time        feet      cfs
02/08/2023 08:55:00    0.22        0
02/08/2023 08:09:00    0.37        4
02/08/2023 06:00:00    0.22        0
02/08/2023 05:04:00    0.22        0
02/08/2023 00:00:00    0.22        0
02/07/2023 23:38:00    0.22        0
02/07/2023 22:42:00    0.42        4
02/07/2023 22:10:00    0.22        0
02/07/2023 20:19:00    0.37        4
02/07/2023 18:00:00    0.22        0
02/07/2023 12:00:00    0.22        0
02/07/2023 08:31:00    0.27        0
02/07/2023 07:56:00    0.42        4
02/07/2023 06:43:00    0.22        0
02/07/2023 06:00:00    0.47        5
02/07/2023 04:52:00    0.47        5
02/07/2023 03:23:00    0.22        0
02/07/2023 02:42:00    0.42        4
02/07/2023 02:33:00    0.22        0
02/07/2023 02:01:00    0.42        4
02/07/2023 01:02:00    0.22        0
02/07/2023 00:00:00    0.37        4
02/06/2023 21:16:00    0.37        4
02/06/2023 18:00:00    0.22        0
02/06/2023 12:00:00    0.27        0
02/06/2023 08:59:00    0.22        0
02/06/2023 06:00:00    0.37        4
02/06/2023 00:00:00    0.32        3
02/05/2023 23:45:00    0.37        4
02/05/2023 18:00:54    0.22        0
02/05/2023 08:27:00    0.27        0
02/05/2023 06:49:00    0.42        4
02/05/2023 06:30:00    0.22        0
02/05/2023 06:00:00    0.42        4
02/05/2023 00:00:00    0.37        4
02/04/2023 22:06:00    0.37        4
02/04/2023 18:00:00    0.22        0
02/04/2023 12:00:00    0.22        0
02/04/2023 07:39:00    0.47        5
02/04/2023 07:05:00    0.22        0
02/04/2023 06:00:00    0.42        4
02/04/2023 00:00:00    0.32        3
02/03/2023 18:00:00    0.22        0
02/03/2023 12:00:00    0.22        0
02/03/2023 08:55:00    0.27        0
02/03/2023 06:00:00    0.42        4
02/03/2023 04:45:00    0.47        5
02/03/2023 03:58:00    0.22        0
02/03/2023 00:00:00    0.42        4
02/02/2023 19:55:00    0.37        4
02/02/2023 18:00:00    0.22        0
02/02/2023 12:00:00    0.22        0
02/02/2023 06:00:00    0.22        0
02/02/2023 00:00:00    0.20        0
02/01/2023 20:37:00    0.20        0
02/01/2023 18:00:00    0.20        0
02/01/2023 12:00:00    0.20        0
02/01/2023 08:54:00    0.20        0
02/01/2023 08:08:00    0.20        0
02/01/2023 06:41:00    0.20        0
02/01/2023 06:00:00    0.20        0
02/01/2023 00:00:00    0.20        0
01/31/2023 20:00:00    0.20        0
01/31/2023 18:00:00    0.20        0
01/31/2023 12:00:00    0.20        0
01/31/2023 08:45:00    0.20        0
01/31/2023 06:00:00    0.20        0
01/31/2023 00:00:00    0.20        0
01/30/2023 19:57:00    0.20        0
01/30/2023 18:00:00    0.20        0
01/30/2023 12:00:00    0.20        0
01/30/2023 08:35:00    0.20        0
01/30/2023 06:00:00    0.20        0
01/30/2023 00:00:00    0.20        0
01/29/2023 21:30:00    0.20        0
01/29/2023 18:00:00    0.20        0
01/29/2023 12:00:00    0.20        0
01/29/2023 08:30:00    0.20        0
01/29/2023 07:35:00    0.20        0
01/29/2023 06:22:00    0.20        0
01/29/2023 06:00:00    0.20        0
01/29/2023 04:43:00    0.20        0
01/29/2023 02:58:00    0.20        0
01/29/2023 02:15:00    0.20        0
01/29/2023 00:00:00    0.20        0
01/28/2023 22:58:00    0.20        0
01/28/2023 19:28:00    0.20        0
01/28/2023 18:00:00    0.20        0
01/28/2023 12:00:00    0.20        0
01/28/2023 09:16:00    0.20        0
01/28/2023 08:10:00    0.20        0
01/28/2023 06:00:00    0.20        0
01/28/2023 05:54:00    0.20        0
01/28/2023 00:00:00    0.20        0
01/27/2023 22:34:00    0.20        0
01/27/2023 22:19:00    0.20        0
01/27/2023 21:22:00    0.20        0
01/27/2023 19:22:00    0.20        0
01/27/2023 18:00:00    0.20        0
01/27/2023 12:00:00    0.20        0
01/27/2023 08:33:00    0.20        0
01/27/2023 06:16:00    0.20        0
01/27/2023 06:00:00    0.20        0
01/27/2023 05:32:00    0.20        0
01/27/2023 02:25:00    0.20        0
01/27/2023 00:00:00    0.20        0
01/26/2023 19:11:00    0.20        0
01/26/2023 18:00:00    0.20        0
01/26/2023 12:00:00    0.20        0
01/26/2023 09:03:00    0.20        0
01/26/2023 07:54:00    0.20        0
01/26/2023 06:00:00    0.20        0
01/26/2023 05:39:00    0.20        0
01/26/2023 04:55:00    0.20        0
01/26/2023 02:13:00    0.20        0
01/26/2023 01:44:00    0.20        0
01/26/2023 00:00:00    0.20        0
01/25/2023 19:02:00    0.20        0
01/25/2023 18:00:00    0.20        0
01/25/2023 12:00:00    0.20        0
01/25/2023 09:24:00    0.20        0
01/25/2023 08:37:00    0.20        0
01/25/2023 06:00:00    0.20        0
01/25/2023 05:45:00    0.20        0
01/25/2023 01:52:00    0.20        0
01/25/2023 01:03:00    0.20        0
01/25/2023 00:44:00    0.20        0
01/25/2023 00:00:00    0.20        0
01/24/2023 19:03:00    0.20        0
01/24/2023 18:00:00    0.20        0
01/24/2023 12:00:00    0.20        0
01/24/2023 09:17:00    0.20        0
01/24/2023 08:23:00    0.20        0
01/24/2023 06:44:00    0.20        0
01/24/2023 06:00:00    0.20        0
01/24/2023 03:48:00    0.20        0
01/24/2023 03:26:00    0.20        0
01/24/2023 00:00:00    0.20        0
01/23/2023 23:48:00    0.20        0
01/23/2023 20:31:00    0.20        0
01/23/2023 18:00:00    0.20        0
01/23/2023 17:52:00    0.20        0
01/23/2023 12:00:00    0.20        0
01/23/2023 10:29:00    0.20        0
01/23/2023 06:00:00    0.20        0
01/23/2023 00:00:00    0.20        0
01/22/2023 21:48:00    0.20        0
01/22/2023 18:00:00    0.20        0
01/22/2023 12:00:00    0.20        0
01/22/2023 09:55:00    0.20        0
01/22/2023 08:51:00    0.20        0
01/22/2023 08:05:00    0.20        0
01/22/2023 06:00:00    0.20        0
01/22/2023 03:55:00    0.20        0
01/22/2023 03:27:00    0.20        0
01/22/2023 02:51:00    0.20        0
01/22/2023 00:44:00    0.20        0
01/22/2023 00:26:00    0.20        0
01/22/2023 00:00:00    0.20        0
01/21/2023 23:19:00    0.20        0
01/21/2023 23:02:00    0.20        0
01/21/2023 19:37:00    0.20        0
01/21/2023 18:00:00    0.20        0
01/21/2023 12:00:00    0.20        0
01/21/2023 09:45:00    0.20        0
01/21/2023 08:41:00    0.20        0
01/21/2023 06:22:00    0.20        0
01/21/2023 06:00:00    0.20        0
01/21/2023 04:22:00    0.20        0
01/21/2023 00:00:00    0.20        0
01/20/2023 21:15:00    0.20        0
01/20/2023 18:00:00    0.20        0
01/20/2023 12:00:00    0.20        0
01/20/2023 09:06:00    0.20        0
01/20/2023 06:00:00    0.20        0
01/20/2023 00:00:00    0.20        0
01/19/2023 19:19:00    0.20        0
01/19/2023 18:00:00    0.20        0
01/19/2023 12:00:00    0.20        0
01/19/2023 08:58:00    0.20        0
01/19/2023 08:17:00    0.20        0
01/19/2023 06:53:00    0.20        0
01/19/2023 06:00:00    0.20        0
01/19/2023 00:00:00    0.20        0
01/18/2023 19:20:00    0.20        0
01/18/2023 18:00:00    0.20        0
01/18/2023 12:00:00    0.20        0
01/18/2023 08:51:00    0.20        0
01/18/2023 06:00:00    0.20        0
01/18/2023 00:00:00    0.20        0
01/17/2023 19:11:00    0.20        0
01/17/2023 18:00:00    0.20        0
01/17/2023 12:00:00    0.20        0
01/17/2023 06:00:00    0.20        0
01/17/2023 00:00:00    0.20        0
01/16/2023 18:00:00    0.20        0
01/16/2023 12:00:00    0.20        0
01/16/2023 06:00:00    0.20        0
01/16/2023 00:00:00    0.20        0
01/15/2023 18:00:00    0.20        0
01/15/2023 12:00:00    0.20        0
01/15/2023 06:00:00    0.20        0
01/15/2023 00:00:00    0.20        0
01/14/2023 18:00:00    0.20        0
01/14/2023 12:00:00    0.20        0
01/14/2023 09:54:00    0.20        0
01/14/2023 06:00:00    0.20        0
01/14/2023 00:00:00    0.20        0
01/13/2023 18:00:00    0.20        0
01/13/2023 12:00:00    0.20        0
01/13/2023 08:28:00    0.20        0
01/13/2023 06:00:00    0.20        0
01/13/2023 00:00:00    0.20        0
01/12/2023 23:05:00    0.20        0
01/12/2023 18:00:00    0.20        0
01/12/2023 12:00:00    0.20        0
01/12/2023 08:37:00    0.20        0
01/12/2023 07:49:00    0.20        0
01/12/2023 06:00:00    0.20        0
01/12/2023 00:00:00    0.20        0
01/11/2023 20:42:00    0.20        0
01/11/2023 18:00:00    0.20        0
01/11/2023 12:00:00    0.20        0
01/11/2023 09:29:00    0.20        0
01/11/2023 06:00:00    0.20        0
01/11/2023 00:00:00    0.20        0
01/10/2023 18:00:00    0.20        0
01/10/2023 12:00:00    0.20        0
01/10/2023 09:26:00    0.20        0
01/10/2023 06:00:00    0.20        0
01/10/2023 00:00:00    0.20        0
01/09/2023 20:29:00    0.20        0
01/09/2023 18:00:00    0.20        0
01/09/2023 17:58:46    0.20        0
01/09/2023 12:00:00    0.20        0
01/09/2023 08:19:00    0.20        0
01/09/2023 06:00:00    0.20        0
01/09/2023 00:00:00    0.20        0
01/08/2023 20:47:00    0.20        0
01/08/2023 18:00:00    0.20        0
01/08/2023 12:00:00    0.20        0